Time;durP1;ratioP1;P1;durP2;ratioP2;P2;SDS_P1;SDS_P2;PMS_P1;PMS_P2;Temp;Humidity;BMP_temperature;BMP_pressure;BME280_temperature;BME280_humidity;BME280_pressure;Samples;Min_cycle;Max_cycle;Signal;HPM_P1;HPM_P2
2022/12/28 00:02:25;;;;;;;5.68;2.80;;;27.20;99.90;;;;;;5023435;28;20604;-92
2022/12/28 00:04:57;;;;;;;7.63;2.47;;;27.10;99.90;;;;;;5024419;28;20213;-90
2022/12/28 00:07:27;;;;;;;6.50;2.20;;;27.20;99.90;;;;;;5031574;28;20235;-92
2022/12/28 00:09:59;;;;;;;4.55;1.50;;;27.20;99.90;;;;;;5032315;28;20281;-89
2022/12/28 00:12:31;;;;;;;4.88;1.20;;;27.30;99.90;;;;;;5024225;28;20281;-90
2022/12/28 00:15:04;;;;;;;4.05;1.25;;;27.20;99.90;;;;;;5018300;28;20301;-91
2022/12/28 00:17:36;;;;;;;4.55;1.90;;;27.40;99.90;;;;;;5021319;28;20209;-91
2022/12/28 00:20:07;;;;;;;4.32;1.80;;;27.60;99.90;;;;;;5020516;28;20650;-91
2022/12/28 00:22:38;;;;;;;6.07;2.20;;;27.70;99.90;;;;;;5030618;28;20320;-88
2022/12/28 00:25:09;;;;;;;6.85;2.22;;;27.60;99.90;;;;;;5031725;28;20225;-86
2022/12/28 00:27:40;;;;;;;2.97;1.52;;;27.60;99.90;;;;;;5018325;28;20676;-87
2022/12/28 00:30:14;;;;;;;4.43;1.40;;;27.60;99.90;;;;;;5012331;28;20232;-90
2022/12/28 00:32:45;;;;;;;4.88;1.20;;;27.50;99.90;;;;;;5012096;28;20221;-88
2022/12/28 00:35:16;;;;;;;10.38;1.45;;;27.50;99.90;;;;;;5015271;28;20607;-88
2022/12/28 00:37:47;;;;;;;3.05;1.10;;;27.50;99.90;;;;;;5026937;28;20280;-88
2022/12/28 00:40:18;;;;;;;6.63;1.27;;;27.70;99.90;;;;;;5038049;28;20241;-88
2022/12/28 00:42:49;;;;;;;6.85;1.33;;;27.80;99.90;;;;;;5033537;28;20333;-89
2022/12/28 00:45:22;;;;;;;4.00;1.10;;;27.80;99.90;;;;;;5029447;28;20757;-88
2022/12/28 00:47:52;;;;;;;5.25;1.00;;;27.80;99.90;;;;;;5016387;28;20229;-89
2022/12/28 00:50:23;;;;;;;5.22;1.40;;;27.80;99.90;;;;;;5019937;28;20214;-88
2022/12/28 00:52:54;;;;;;;4.55;1.20;;;27.70;99.90;;;;;;5028846;28;20739;-88
2022/12/28 00:55:27;;;;;;;3.63;1.10;;;27.50;99.90;;;;;;5025665;28;20230;-90
2022/12/28 00:58:00;;;;;;;4.82;1.27;;;27.50;99.90;;;;;;5031949;28;20201;-87
2022/12/28 01:00:35;;;;;;;5.78;1.23;;;27.50;99.90;;;;;;5014906;28;20186;-89
2022/12/28 01:03:06;;;;;;;4.88;1.40;;;27.40;99.90;;;;;;5019982;28;20271;-89
2022/12/28 01:05:40;;;;;;;5.65;1.58;;;27.50;99.90;;;;;;5018193;28;20556;-88
2022/12/28 01:08:10;;;;;;;4.45;1.50;;;27.50;99.90;;;;;;5018051;28;20692;-88
2022/12/28 01:10:42;;;;;;;5.90;1.38;;;27.40;99.90;;;;;;5030575;28;20193;-91
2022/12/28 01:13:13;;;;;;;4.43;1.23;;;27.50;99.90;;;;;;5028965;28;20468;-91
2022/12/28 01:15:46;;;;;;;7.75;1.45;;;27.60;99.90;;;;;;5030902;28;20247;-91
2022/12/28 01:18:18;;;;;;;7.57;1.52;;;27.70;99.90;;;;;;5031707;28;20313;-91
2022/12/28 01:20:49;;;;;;;7.38;1.33;;;27.70;99.90;;;;;;5027255;28;20277;-91
2022/12/28 01:23:21;;;;;;;4.13;1.30;;;27.80;99.90;;;;;;5023560;28;20229;-91
2022/12/28 01:25:52;;;;;;;4.68;1.05;;;27.90;99.90;;;;;;5032291;28;20297;-91
2022/12/28 01:28:23;;;;;;;4.43;1.10;;;27.90;99.90;;;;;;5015326;28;20576;-92
2022/12/28 01:30:55;;;;;;;4.45;1.17;;;28.00;99.90;;;;;;5020003;28;20296;-91
2022/12/28 01:33:26;;;;;;;4.50;1.25;;;27.90;99.90;;;;;;5033869;28;20232;-91
2022/12/28 01:35:57;;;;;;;4.72;1.35;;;28.10;99.90;;;;;;5015859;28;20229;-90
2022/12/28 01:38:28;;;;;;;4.22;1.30;;;28.10;99.90;;;;;;5027850;28;20224;-89
2022/12/28 01:40:59;;;;;;;5.38;1.30;;;28.20;99.90;;;;;;5044929;28;20247;-91
2022/12/28 01:43:42;;;;;;;4.43;1.50;;;28.30;99.90;;;;;;5028786;28;20202;-90
2022/12/28 01:46:18;;;;;;;3.88;1.40;;;28.20;99.90;;;;;;5023504;28;20197;-90
2022/12/28 01:48:59;;;;;;;7.75;1.50;;;28.00;99.90;;;;;;5016638;28;20232;-88
2022/12/28 01:51:34;;;;;;;4.00;1.17;;;28.10;99.90;;;;;;5024819;28;20275;-89
2022/12/28 01:54:06;;;;;;;3.35;2.00;;;28.20;99.90;;;;;;5019257;28;20287;-90
2022/12/28 01:56:41;;;;;;;8.50;1.90;;;28.20;99.90;;;;;;5018829;28;20276;-91
2022/12/28 01:59:12;;;;;;;5.82;2.63;;;28.20;99.90;;;;;;5017769;28;20334;-86
2022/12/28 02:01:45;;;;;;;6.68;1.83;;;28.30;99.90;;;;;;5026158;28;20363;-88
2022/12/28 02:04:16;;;;;;;5.30;1.27;;;28.40;99.90;;;;;;5036542;28;20248;-88
2022/12/28 02:06:47;;;;;;;6.78;1.52;;;28.50;99.90;;;;;;5032050;28;20196;-88
2022/12/28 02:09:22;;;;;;;4.05;1.30;;;28.60;99.90;;;;;;5022675;28;20273;-90
2022/12/28 02:11:53;;;;;;;3.95;1.40;;;28.70;99.90;;;;;;5025500;28;20307;-92
2022/12/28 02:14:27;;;;;;;5.43;1.40;;;28.70;99.90;;;;;;5034127;28;20320;-91
2022/12/28 02:17:01;;;;;;;6.65;2.10;;;28.70;99.90;;;;;;5032769;28;20188;-91
2022/12/28 02:19:41;;;;;;;4.07;1.40;;;28.60;99.90;;;;;;5025100;28;20273;-93
2022/12/28 02:22:35;;;;;;;4.53;1.30;;;28.70;99.90;;;;;;5025878;28;20592;-93
2022/12/28 02:25:48;;;;;;;6.00;1.58;;;28.80;99.90;;;;;;5026425;28;20239;-93
2022/12/28 02:28:35;;;;;;;4.40;1.20;;;28.70;99.90;;;;;;4967983;28;20254;-93
2022/12/28 02:31:14;;;;;;;4.72;1.40;;;28.80;99.90;;;;;;5018341;28;20222;-92
2022/12/28 02:33:51;;;;;;;5.03;1.55;;;29.00;99.90;;;;;;5018410;28;20266;-95
2022/12/28 02:36:28;;;;;;;7.22;1.42;;;29.10;99.90;;;;;;5024371;28;20240;-92
2022/12/28 02:39:05;;;;;;;4.03;1.45;;;29.10;99.90;;;;;;5047840;28;20200;-94
2022/12/28 02:41:42;;;;;;;6.10;1.35;;;29.10;99.90;;;;;;5036789;28;20304;-94
2022/12/28 02:50:04;;;;;;;4.97;1.50;;;29.20;99.90;;;;;;5032253;28;20200;-94
2022/12/28 02:50:14;;;;;;;4.60;1.42;;;29.20;99.90;;;;;;5006035;28;20224;-91
2022/12/28 02:53:10;;;;;;;6.60;1.67;;;29.10;99.90;;;;;;5022645;28;20551;-91
2022/12/28 02:56:08;;;;;;;6.63;1.52;;;29.10;99.90;;;;;;5029960;28;20198;-92
2022/12/28 02:59:15;;;;;;;3.88;1.50;;;29.10;99.90;;;;;;5023307;28;20201;-93
2022/12/28 03:02:18;;;;;;;6.82;1.80;;;29.10;99.90;;;;;;5022838;28;20288;-92
2022/12/28 03:05:06;;;;;;;4.97;1.27;;;29.10;99.90;;;;;;5027252;28;20275;-92
2022/12/28 03:10:38;;;;;;;4.93;1.30;;;29.20;99.90;;;;;;5032912;28;20771;-94
2022/12/28 03:13:41;;;;;;;3.65;1.23;;;29.30;99.90;;;;;;5034051;28;20296;-93
2022/12/28 03:16:11;;;;;;;5.50;1.25;;;29.50;99.90;;;;;;5036741;28;20263;-96
2022/12/28 03:32:53;;;;;;;5.80;1.50;;;29.60;99.90;;;;;;5028455;28;20607;-93
2022/12/28 03:35:34;;;;;;;7.88;1.40;;;29.30;99.90;;;;;;5038834;28;20225;-89
2022/12/28 03:38:06;;;;;;;6.47;1.30;;;29.10;99.90;;;;;;5027588;28;20221;-93
2022/12/28 03:40:41;;;;;;;4.07;1.25;;;29.30;99.90;;;;;;5053067;28;20216;-91
2022/12/28 03:46:10;;;;;;;6.88;1.30;;;29.70;99.90;;;;;;5041808;28;20323;-90
2022/12/28 03:48:43;;;;;;;6.15;1.40;;;29.60;99.90;;;;;;5038917;28;20231;-92
2022/12/28 03:51:18;;;;;;;5.45;1.20;;;29.60;99.90;;;;;;5031454;28;20228;-90
2022/12/28 03:53:51;;;;;;;4.47;1.17;;;29.60;99.90;;;;;;5034507;28;20267;-91
2022/12/28 03:56:24;;;;;;;5.28;1.30;;;29.70;99.90;;;;;;5031827;28;20267;-87
2022/12/28 03:58:55;;;;;;;6.55;1.10;;;29.90;99.90;;;;;;5026434;28;20237;-90
2022/12/28 04:01:29;;;;;;;3.92;1.35;;;29.90;99.90;;;;;;5031355;28;20201;-91
2022/12/28 04:04:01;;;;;;;6.32;1.50;;;30.00;99.90;;;;;;5035983;28;20197;-91
2022/12/28 04:06:35;;;;;;;3.13;0.98;;;30.10;99.90;;;;;;5031831;28;20202;-90
2022/12/28 04:09:08;;;;;;;5.82;1.30;;;30.10;99.90;;;;;;5035572;28;20312;-89
2022/12/28 04:11:43;;;;;;;5.70;1.15;;;30.00;99.90;;;;;;5029614;28;20194;-88
2022/12/28 04:14:15;;;;;;;5.68;1.40;;;30.10;99.90;;;;;;5026136;28;20653;-88
2022/12/28 04:16:47;;;;;;;6.28;1.33;;;30.10;99.90;;;;;;5020355;28;20198;-89
2022/12/28 04:19:18;;;;;;;4.97;1.40;;;30.10;99.90;;;;;;5015944;28;20198;-88
2022/12/28 04:21:51;;;;;;;4.20;1.40;;;30.10;99.90;;;;;;5029268;28;20766;-89
2022/12/28 04:24:22;;;;;;;3.80;1.10;;;30.20;99.90;;;;;;5031113;28;20298;-89
2022/12/28 04:26:53;;;;;;;2.53;0.90;;;30.10;99.90;;;;;;5038123;28;20224;-89
2022/12/28 04:29:24;;;;;;;5.30;1.35;;;30.10;99.90;;;;;;5025123;28;20585;-89
2022/12/28 04:31:55;;;;;;;8.73;1.30;;;30.20;99.90;;;;;;5020212;28;20193;-90
2022/12/28 04:34:25;;;;;;;4.68;1.23;;;30.10;99.90;;;;;;5023026;28;20309;-91
2022/12/28 04:36:58;;;;;;;6.30;1.50;;;30.20;99.90;;;;;;5036146;28;20273;-90
2022/12/28 04:39:33;;;;;;;3.97;1.27;;;30.20;99.90;;;;;;5032001;28;20817;-93
2022/12/28 04:42:07;;;;;;;4.18;1.20;;;30.20;99.90;;;;;;5044159;28;20236;-91
2022/12/28 04:44:37;;;;;;;6.57;1.30;;;30.20;99.90;;;;;;5030941;28;20256;-89
2022/12/28 04:47:08;;;;;;;4.72;1.10;;;30.40;99.90;;;;;;5027830;28;20225;-89
2022/12/28 04:49:39;;;;;;;4.20;1.13;;;30.50;99.90;;;;;;5035556;28;20713;-90
2022/12/28 04:52:13;;;;;;;5.25;1.10;;;30.70;99.90;;;;;;5034510;28;20201;-88
2022/12/28 04:54:44;;;;;;;5.28;1.30;;;30.70;99.90;;;;;;5038387;28;20206;-89
2022/12/28 04:57:15;;;;;;;6.10;1.15;;;30.80;99.90;;;;;;5034975;28;20202;-89
2022/12/28 04:59:45;;;;;;;7.57;1.40;;;30.90;99.90;;;;;;5036471;28;20288;-88
2022/12/28 05:02:16;;;;;;;6.25;1.38;;;30.90;99.90;;;;;;5034247;28;20213;-90
2022/12/28 05:04:47;;;;;;;4.07;1.00;;;30.90;99.90;;;;;;5036941;28;20205;-91
2022/12/28 05:07:20;;;;;;;3.70;1.20;;;31.00;99.90;;;;;;5033885;28;20198;-90
2022/12/28 05:09:51;;;;;;;3.67;1.17;;;31.10;99.90;;;;;;5032204;28;20228;-90
2022/12/28 05:12:22;;;;;;;3.67;1.30;;;31.40;99.90;;;;;;5033627;28;20201;-87
2022/12/28 05:14:52;;;;;;;5.85;1.40;;;31.40;99.90;;;;;;5034910;28;20220;-87
2022/12/28 05:17:23;;;;;;;6.00;1.52;;;31.30;99.90;;;;;;5036294;28;20568;-87
2022/12/28 05:19:54;;;;;;;5.93;1.48;;;31.10;99.90;;;;;;5035001;28;20288;-89
2022/12/28 05:22:27;;;;;;;5.70;1.20;;;31.00;99.90;;;;;;5037310;28;20660;-88
2022/12/28 05:24:58;;;;;;;5.53;1.30;;;31.00;99.90;;;;;;5035735;28;20209;-87
2022/12/28 05:27:28;;;;;;;4.22;1.23;;;31.00;99.90;;;;;;5039221;28;20197;-87
2022/12/28 05:29:59;;;;;;;6.88;1.33;;;31.00;99.90;;;;;;5056445;28;20260;-88
2022/12/28 05:32:30;;;;;;;5.82;1.23;;;31.20;99.90;;;;;;5018409;28;20185;-92
2022/12/28 05:35:01;;;;;;;6.65;1.38;;;31.40;99.90;;;;;;5025136;28;20194;-92
2022/12/28 05:37:33;;;;;;;8.65;1.50;;;31.60;99.90;;;;;;5036642;28;20197;-89
2022/12/28 05:40:04;;;;;;;4.53;1.42;;;31.80;99.90;;;;;;5031528;28;20286;-87
2022/12/28 05:42:38;;;;;;;7.15;1.60;;;31.70;99.90;;;;;;5034251;28;20384;-89
2022/12/28 05:45:09;;;;;;;7.18;1.60;;;31.80;99.90;;;;;;5057810;28;20265;-91
2022/12/28 05:47:40;;;;;;;5.05;1.27;;;32.10;99.90;;;;;;5047256;28;20240;-90
2022/12/28 05:50:11;;;;;;;7.13;1.50;;;32.10;99.90;;;;;;5033161;28;20316;-88
2022/12/28 05:52:45;;;;;;;5.65;1.38;;;32.10;99.90;;;;;;5025777;28;20197;-89
2022/12/28 05:55:16;;;;;;;5.93;1.67;;;32.00;99.90;;;;;;5020745;28;20205;-90
2022/12/28 05:57:48;;;;;;;5.35;1.35;;;31.90;99.90;;;;;;5018878;28;20284;-90
2022/12/28 06:00:19;;;;;;;6.25;1.40;;;32.10;99.90;;;;;;5027634;28;20201;-89
2022/12/28 06:02:50;;;;;;;8.95;1.80;;;32.30;99.90;;;;;;5025601;28;20225;-90
2022/12/28 06:05:20;;;;;;;8.65;1.70;;;32.60;99.90;;;;;;5033571;28;20215;-93
2022/12/28 06:07:55;;;;;;;10.23;2.10;;;32.80;99.90;;;;;;5035130;28;20291;-93
2022/12/28 06:10:26;;;;;;;4.80;1.25;;;32.70;99.90;;;;;;5035732;28;20228;-89
2022/12/28 06:12:58;;;;;;;6.57;1.42;;;32.70;99.90;;;;;;5034171;28;20204;-89
2022/12/28 06:15:28;;;;;;;11.38;1.90;;;32.40;99.90;;;;;;5032971;28;20286;-89
2022/12/28 06:17:59;;;;;;;10.60;1.80;;;32.30;99.90;;;;;;5033038;28;20284;-90
2022/12/28 06:20:30;;;;;;;8.00;1.60;;;32.30;99.90;;;;;;5037420;28;20225;-90
2022/12/28 06:23:03;;;;;;;6.78;1.67;;;32.40;99.90;;;;;;5032220;28;20225;-89
2022/12/28 06:25:35;;;;;;;6.65;1.63;;;32.40;99.90;;;;;;5030864;28;20198;-90
2022/12/28 06:28:06;;;;;;;7.07;1.80;;;32.50;99.90;;;;;;5033389;28;20197;-91
2022/12/28 06:30:37;;;;;;;5.93;1.70;;;32.30;99.90;;;;;;5013990;28;20268;-90
2022/12/28 06:33:07;;;;;;;9.30;1.80;;;32.30;99.90;;;;;;5031617;28;20283;-91
2022/12/28 06:35:43;;;;;;;8.18;1.98;;;32.40;99.90;;;;;;5032111;28;20255;-92
2022/12/28 06:38:15;;;;;;;8.13;1.80;;;32.20;99.90;;;;;;5035302;28;20292;-92
2022/12/28 06:40:46;;;;;;;7.03;1.80;;;32.40;99.90;;;;;;5034362;28;20652;-90
2022/12/28 06:43:17;;;;;;;6.15;1.80;;;32.60;99.90;;;;;;5032077;28;20296;-90
2022/12/28 06:45:58;;;;;;;6.22;1.90;;;32.90;99.90;;;;;;5034703;28;20269;-90
2022/12/28 06:48:29;;;;;;;8.63;2.15;;;32.90;99.90;;;;;;5033415;28;20620;-88
2022/12/28 06:51:01;;;;;;;8.10;1.98;;;33.10;99.90;;;;;;5038732;28;20289;-90
2022/12/28 06:53:36;;;;;;;9.98;2.13;;;33.10;99.90;;;;;;5048290;28;20388;-87
2022/12/28 06:56:08;;;;;;;7.72;1.98;;;33.40;99.90;;;;;;5044035;28;20288;-90
2022/12/28 06:58:39;;;;;;;12.00;2.15;;;33.70;99.90;;;;;;5036991;28;20297;-88
2022/12/28 07:01:12;;;;;;;7.22;1.88;;;34.10;99.90;;;;;;5022237;28;20696;-86
2022/12/28 07:03:43;;;;;;;10.15;1.90;;;34.00;99.90;;;;;;5016364;28;20220;-87
2022/12/28 07:06:15;;;;;;;11.73;2.03;;;34.20;99.90;;;;;;5019063;28;20205;-86
2022/12/28 07:08:51;;;;;;;6.82;1.83;;;34.20;99.90;;;;;;5030586;28;20300;-85
2022/12/28 07:11:24;;;;;;;9.73;2.17;;;34.40;99.90;;;;;;5026281;28;20291;-87
2022/12/28 07:13:56;;;;;;;5.65;1.80;;;34.20;99.90;;;;;;5032148;28;20247;-88
2022/12/28 07:16:29;;;;;;;6.57;1.88;;;34.20;99.90;;;;;;5018810;28;20229;-87
2022/12/28 07:19:01;;;;;;;8.30;2.13;;;34.40;99.90;;;;;;5022704;28;20249;-88
2022/12/28 07:21:33;;;;;;;6.05;2.00;;;34.50;99.90;;;;;;5023410;28;20223;-89
2022/12/28 07:24:07;;;;;;;10.52;2.03;;;34.30;99.90;;;;;;5031408;28;20234;-89
2022/12/28 07:26:41;;;;;;;10.57;1.80;;;34.40;99.90;;;;;;5030010;28;20608;-90
2022/12/28 07:29:12;;;;;;;10.63;2.72;;;34.30;99.90;;;;;;5024314;28;20245;-89
2022/12/28 07:31:43;;;;;;;6.28;1.85;;;34.50;99.90;;;;;;5013645;28;20760;-88
2022/12/28 07:34:16;;;;;;;8.07;1.75;;;34.50;99.90;;;;;;5034367;28;20200;-87
2022/12/28 07:36:47;;;;;;;7.68;2.13;;;34.40;99.90;;;;;;5022099;28;20220;-87
2022/12/28 07:39:19;;;;;;;6.00;1.88;;;34.20;99.90;;;;;;5030613;28;20181;-87
2022/12/28 07:41:50;;;;;;;10.07;2.00;;;34.20;99.90;;;;;;5028012;28;20280;-86
2022/12/28 07:44:21;;;;;;;9.57;2.30;;;34.00;99.90;;;;;;5032324;28;20212;-87
2022/12/28 07:46:52;;;;;;;9.50;2.03;;;34.00;99.90;;;;;;5036316;28;20204;-87
2022/12/28 07:49:26;;;;;;;8.35;2.40;;;33.80;99.90;;;;;;5037826;28;20214;-88
2022/12/28 07:51:57;;;;;;;8.93;2.13;;;33.40;99.90;;;;;;5022511;28;20217;-89
2022/12/28 07:54:31;;;;;;;7.65;1.98;;;33.20;99.90;;;;;;5022813;28;20233;-90
2022/12/28 07:57:07;;;;;;;5.38;1.85;;;33.00;99.90;;;;;;5031925;28;20236;-88
2022/12/28 07:59:39;;;;;;;9.68;2.35;;;33.00;99.90;;;;;;5027707;28;20203;-88
2022/12/28 08:02:11;;;;;;;10.00;2.70;;;32.70;99.90;;;;;;5038546;28;20313;-88
2022/12/28 08:04:42;;;;;;;11.32;2.60;;;32.40;99.90;;;;;;5018897;28;20197;-89
2022/12/28 08:07:15;;;;;;;8.23;2.30;;;31.90;99.90;;;;;;5025312;28;20218;-90
2022/12/28 08:09:48;;;;;;;7.13;2.80;;;31.40;99.90;;;;;;5014312;28;20312;-89
2022/12/28 08:12:20;;;;;;;8.13;2.33;;;30.90;99.90;;;;;;5034307;28;20285;-86
2022/12/28 08:14:50;;;;;;;9.95;2.60;;;30.60;99.90;;;;;;5030080;28;20279;-87
2022/12/28 08:17:21;;;;;;;10.13;2.53;;;30.10;99.90;;;;;;5026057;28;20193;-87
2022/12/28 08:19:54;;;;;;;8.32;2.30;;;29.60;99.90;;;;;;5052342;28;20258;-87
2022/12/28 08:22:25;;;;;;;12.13;2.38;;;29.00;99.90;;;;;;5034244;28;20225;-88
2022/12/28 08:24:57;;;;;;;14.38;2.72;;;28.60;99.90;;;;;;5032528;28;20198;-88
2022/12/28 08:27:28;;;;;;;11.02;2.75;;;28.40;99.90;;;;;;5023515;28;20249;-87
2022/12/28 08:30:00;;;;;;;12.45;2.50;;;28.10;99.90;;;;;;5029608;28;20221;-90
2022/12/28 08:32:31;;;;;;;13.48;2.38;;;27.80;99.90;;;;;;5026686;28;20220;-88
2022/12/28 08:35:02;;;;;;;13.23;2.50;;;27.60;99.90;;;;;;5032372;28;20303;-88
2022/12/28 08:37:33;;;;;;;12.30;2.72;;;27.40;99.90;;;;;;5054562;28;20299;-89
2022/12/28 08:40:07;;;;;;;12.70;2.60;;;27.30;99.90;;;;;;5032765;28;20248;-89
2022/12/28 08:42:38;;;;;;;9.63;2.17;;;27.10;99.90;;;;;;5032457;28;20292;-91
2022/12/28 08:45:09;;;;;;;13.93;2.90;;;27.00;99.90;;;;;;5035375;28;20574;-90
2022/12/28 08:47:40;;;;;;;11.52;2.60;;;26.80;99.90;;;;;;5013917;28;20228;-88
2022/12/28 08:50:11;;;;;;;14.20;2.65;;;26.70;99.90;;;;;;5022606;28;20230;-89
2022/12/28 08:52:42;;;;;;;12.43;2.85;;;26.60;99.90;;;;;;5044036;28;20249;-89
2022/12/28 08:55:15;;;;;;;13.73;3.22;;;26.50;99.90;;;;;;5050427;28;20197;-89
2022/12/28 08:57:46;;;;;;;9.50;2.50;;;26.50;99.90;;;;;;5017165;28;20640;-88
2022/12/28 09:00:18;;;;;;;11.57;2.28;;;26.50;99.90;;;;;;5024639;28;20759;-89
2022/12/28 09:02:51;;;;;;;12.30;2.78;;;26.50;99.90;;;;;;5022623;28;20231;-89
2022/12/28 09:05:23;;;;;;;15.63;2.92;;;26.50;99.90;;;;;;5034249;28;20243;-90
2022/12/28 09:07:54;;;;;;;13.88;2.65;;;26.50;99.90;;;;;;5031772;28;20209;-88
2022/12/28 09:10:27;;;;;;;12.25;2.63;;;26.50;99.90;;;;;;5030369;28;20217;-86
2022/12/28 09:12:58;;;;;;;15.65;2.70;;;26.40;99.90;;;;;;5035552;28;20564;-89
2022/12/28 09:15:29;;;;;;;10.68;2.80;;;26.30;99.90;;;;;;5036046;28;20691;-90
2022/12/28 09:18:00;;;;;;;14.88;2.80;;;26.30;99.90;;;;;;5037098;28;20194;-91
2022/12/28 09:20:31;;;;;;;11.32;2.90;;;26.10;99.90;;;;;;5035808;28;20203;-91
2022/12/28 09:23:02;;;;;;;12.68;2.53;;;26.10;99.90;;;;;;5033937;28;20312;-91
2022/12/28 09:25:37;;;;;;;11.38;2.90;;;26.10;99.90;;;;;;5028612;28;20189;-91
2022/12/28 09:28:08;;;;;;;13.15;2.63;;;26.00;99.90;;;;;;5045106;28;20723;-91
2022/12/28 09:30:40;;;;;;;12.23;2.40;;;26.00;99.90;;;;;;5033379;28;20315;-88
2022/12/28 09:36:01;;;;;;;15.65;2.78;;;26.00;99.90;;;;;;5013331;28;20184;-89
2022/12/28 09:38:33;;;;;;;9.77;2.70;;;25.90;99.90;;;;;;5013653;28;20202;-87
2022/12/28 09:41:14;;;;;;;10.00;2.35;;;25.90;99.90;;;;;;5032531;28;20284;-88
2022/12/28 09:43:45;;;;;;;15.52;3.20;;;25.80;99.90;;;;;;5029700;28;20225;-91
2022/12/28 09:46:20;;;;;;;11.40;2.33;;;25.80;99.90;;;;;;5034620;28;20629;-91
2022/12/28 09:48:58;;;;;;;12.45;2.60;;;25.80;99.90;;;;;;5036836;28;20192;-88
2022/12/28 09:51:37;;;;;;;8.75;2.08;;;25.70;99.90;;;;;;5044468;28;20293;-88
2022/12/28 09:54:08;;;;;;;12.90;2.70;;;25.70;99.90;;;;;;5023891;28;20224;-89
2022/12/28 09:56:44;;;;;;;12.30;2.80;;;25.70;99.90;;;;;;5051730;28;20216;-90
2022/12/28 09:59:20;;;;;;;9.20;2.30;;;25.70;99.90;;;;;;5044358;28;20218;-89
2022/12/28 10:01:56;;;;;;;15.20;2.75;;;25.70;99.90;;;;;;5048225;28;20240;-89
2022/12/28 10:04:31;;;;;;;11.10;2.95;;;25.70;99.90;;;;;;5033532;28;20198;-88
2022/12/28 10:07:03;;;;;;;13.02;2.67;;;25.70;99.90;;;;;;5022398;28;20565;-88
2022/12/28 10:09:35;;;;;;;13.88;2.70;;;25.70;99.90;;;;;;5032853;28;20201;-87
2022/12/28 10:12:18;;;;;;;13.95;2.80;;;25.70;99.90;;;;;;5036629;28;20232;-88
2022/12/28 10:14:50;;;;;;;12.02;2.35;;;25.70;99.90;;;;;;5034424;28;20679;-88
2022/12/28 10:17:27;;;;;;;12.80;2.72;;;25.70;99.90;;;;;;5026108;28;20204;-89
2022/12/28 10:20:01;;;;;;;12.88;2.47;;;25.70;99.90;;;;;;5033780;28;20203;-88
2022/12/28 10:22:40;;;;;;;11.77;2.78;;;25.70;99.90;;;;;;5034806;28;20275;-89
2022/12/28 10:25:18;;;;;;;9.45;2.60;;;25.70;99.90;;;;;;5024106;28;20557;-86
2022/12/28 10:27:51;;;;;;;11.10;2.35;;;25.70;99.90;;;;;;5018767;28;20261;-87
2022/12/28 10:30:25;;;;;;;9.95;2.65;;;25.60;99.90;;;;;;5035797;28;20656;-86
2022/12/28 10:32:59;;;;;;;12.60;3.03;;;25.60;99.90;;;;;;5037703;28;20193;-86
2022/12/28 10:35:32;;;;;;;11.60;2.50;;;25.70;99.90;;;;;;5037266;28;20215;-88
2022/12/28 10:38:06;;;;;;;10.43;2.78;;;25.60;99.90;;;;;;5031343;28;20205;-87
2022/12/28 10:40:39;;;;;;;14.40;2.72;;;25.60;99.90;;;;;;5029645;28;20288;-88
2022/12/28 10:43:21;;;;;;;9.80;2.50;;;25.60;99.90;;;;;;5029448;28;20209;-90
2022/12/28 10:45:53;;;;;;;13.18;2.70;;;25.50;99.90;;;;;;5037768;28;20228;-88
2022/12/28 10:48:27;;;;;;;12.95;2.88;;;25.50;99.90;;;;;;5025421;28;20197;-87
2022/12/28 10:51:01;;;;;;;13.65;2.65;;;25.50;99.90;;;;;;5046721;28;20211;-87
2022/12/28 10:53:34;;;;;;;10.50;2.90;;;25.50;99.90;;;;;;5020485;28;20194;-90
2022/12/28 10:56:08;;;;;;;18.52;3.10;;;25.50;99.90;;;;;;5033605;28;20196;-91
2022/12/28 10:58:41;;;;;;;13.57;2.88;;;25.50;99.90;;;;;;5038598;28;20284;-91
2022/12/28 11:01:20;;;;;;;17.45;3.42;;;25.40;99.90;;;;;;5019767;28;20312;-90
2022/12/28 11:04:05;;;;;;;12.85;2.67;;;25.40;99.90;;;;;;5022619;28;20645;-90
2022/12/28 11:06:37;;;;;;;11.80;2.55;;;25.40;99.90;;;;;;5019110;28;20662;-90
2022/12/28 11:09:19;;;;;;;10.20;2.38;;;25.40;99.90;;;;;;5029984;28;20221;-90
2022/12/28 11:11:53;;;;;;;12.05;2.90;;;25.40;99.90;;;;;;5023213;28;20256;-92
2022/12/28 11:14:34;;;;;;;13.43;2.78;;;25.40;99.90;;;;;;5031216;28;20228;-92
2022/12/28 11:17:20;;;;;;;11.35;2.45;;;25.30;99.90;;;;;;5031618;28;20289;-91
2022/12/28 11:19:54;;;;;;;9.48;2.35;;;25.30;99.90;;;;;;5026934;28;20197;-90
2022/12/28 11:22:28;;;;;;;10.38;2.30;;;25.30;99.90;;;;;;5027208;28;20234;-90
2022/12/28 11:25:03;;;;;;;15.20;3.15;;;25.30;99.90;;;;;;5026021;28;20276;-90
2022/12/28 11:27:35;;;;;;;10.48;2.40;;;25.30;99.90;;;;;;5035483;28;20308;-89
2022/12/28 11:30:14;;;;;;;11.07;2.55;;;25.30;99.90;;;;;;5037499;28;20279;-90
2022/12/28 11:32:52;;;;;;;10.20;2.75;;;25.20;99.90;;;;;;5017837;28;20308;-90
2022/12/28 11:35:26;;;;;;;13.15;2.58;;;25.30;99.90;;;;;;5017655;28;20264;-89
2022/12/28 11:38:00;;;;;;;13.27;2.70;;;25.20;99.90;;;;;;5034936;28;20193;-90
2022/12/28 11:40:53;;;;;;;14.75;3.00;;;25.20;99.90;;;;;;5015986;28;20703;-89
2022/12/28 11:43:42;;;;;;;12.27;2.50;;;25.10;99.90;;;;;;5033888;28;20198;-87
2022/12/28 11:46:43;;;;;;;12.07;2.67;;;25.10;99.90;;;;;;5038414;28;20257;-87
2022/12/28 11:49:33;;;;;;;12.95;3.10;;;25.10;99.90;;;;;;5028745;28;20207;-88
2022/12/28 11:52:44;;;;;;;16.35;3.17;;;25.10;99.90;;;;;;5055352;28;20224;-89
2022/12/28 11:55:39;;;;;;;13.63;2.90;;;25.10;99.90;;;;;;5040467;28;20217;-87
2022/12/28 11:58:43;;;;;;;14.40;3.22;;;25.00;99.90;;;;;;5020469;28;20194;-89
2022/12/28 12:01:29;;;;;;;15.32;3.10;;;25.00;99.90;;;;;;5036597;28;20288;-88
2022/12/28 12:04:28;;;;;;;15.65;3.10;;;25.00;99.90;;;;;;5034471;28;20197;-87
2022/12/28 12:07:42;;;;;;;10.23;2.60;;;25.00;99.90;;;;;;5028498;28;20236;-89
2022/12/28 12:10:32;;;;;;;13.60;2.45;;;24.90;99.90;;;;;;5013203;28;20304;-88
2022/12/28 12:13:25;;;;;;;14.00;2.80;;;24.90;99.90;;;;;;5015695;28;20608;-87
2022/12/28 12:15:59;;;;;;;13.15;2.58;;;24.90;99.90;;;;;;5031115;28;20204;-89
2022/12/28 12:18:35;;;;;;;14.75;2.72;;;24.90;99.90;;;;;;5035432;28;20278;-88
2022/12/28 12:21:08;;;;;;;15.65;2.97;;;24.90;99.90;;;;;;5014587;28;20687;-87
2022/12/28 12:23:46;;;;;;;10.95;2.65;;;24.90;99.90;;;;;;5027081;28;20622;-88
2022/12/28 12:26:31;;;;;;;14.52;2.60;;;24.80;99.90;;;;;;5034203;28;20195;-89
2022/12/28 12:29:06;;;;;;;12.27;2.80;;;24.80;99.90;;;;;;5035351;28;20182;-88
2022/12/28 12:31:44;;;;;;;13.35;2.63;;;24.80;99.90;;;;;;5034460;28;20323;-88
2022/12/28 12:34:22;;;;;;;12.48;2.70;;;24.80;99.90;;;;;;5035930;28;20205;-89
2022/12/28 12:37:24;;;;;;;14.43;3.03;;;24.80;99.90;;;;;;5035320;28;20263;-89
2022/12/28 12:40:16;;;;;;;15.35;3.20;;;24.80;99.90;;;;;;5030408;28;20285;-89
2022/12/28 12:43:06;;;;;;;14.15;2.85;;;24.80;99.90;;;;;;5033997;28;20208;-89
2022/12/28 12:45:49;;;;;;;11.38;2.80;;;24.80;99.90;;;;;;5039910;28;20198;-88
2022/12/28 12:48:39;;;;;;;17.13;3.28;;;24.70;99.90;;;;;;5047329;28;20252;-87
2022/12/28 12:51:22;;;;;;;17.75;3.10;;;24.70;99.90;;;;;;5058332;28;20346;-87
2022/12/28 12:54:08;;;;;;;14.57;3.05;;;24.70;99.90;;;;;;5043090;28;20668;-87
2022/12/28 12:56:47;;;;;;;11.43;3.22;;;24.60;99.90;;;;;;5034316;28;20700;-88
2022/12/28 12:59:42;;;;;;;14.88;2.75;;;24.60;99.90;;;;;;5028242;28;20193;-87
2022/12/28 13:02:31;;;;;;;15.23;2.72;;;24.60;99.90;;;;;;5013806;28;20198;-88
2022/12/28 13:05:05;;;;;;;11.55;2.97;;;24.60;99.90;;;;;;5033131;28;20295;-88
2022/12/28 13:07:36;;;;;;;12.07;2.60;;;24.60;99.90;;;;;;5027906;28;20204;-90
2022/12/28 13:10:12;;;;;;;13.07;2.88;;;24.60;99.90;;;;;;5032083;28;20285;-89
2022/12/28 13:12:44;;;;;;;14.20;3.00;;;24.60;99.90;;;;;;5034510;28;20586;-89
2022/12/28 13:15:21;;;;;;;18.83;3.28;;;24.60;99.90;;;;;;5034509;28;20235;-89
2022/12/28 13:18:06;;;;;;;13.40;3.10;;;24.60;99.90;;;;;;5028936;28;20717;-89
2022/12/28 13:20:37;;;;;;;12.32;3.03;;;24.60;99.90;;;;;;5018585;28;20683;-89
2022/12/28 13:23:16;;;;;;;11.95;2.83;;;24.60;99.90;;;;;;5024658;28;20240;-89
2022/12/28 13:25:50;;;;;;;13.30;3.20;;;24.60;99.90;;;;;;5026785;28;20224;-89
2022/12/28 13:28:23;;;;;;;12.10;3.00;;;24.60;99.90;;;;;;5028245;28;20203;-89
2022/12/28 13:31:17;;;;;;;13.82;3.13;;;24.60;99.90;;;;;;5034239;28;20663;-88
2022/12/28 13:33:58;;;;;;;10.93;2.53;;;24.60;99.90;;;;;;5026241;28;20222;-89
2022/12/28 13:36:30;;;;;;;13.90;2.97;;;24.60;99.90;;;;;;5043961;28;20578;-88
2022/12/28 13:39:13;;;;;;;15.68;3.28;;;24.60;99.90;;;;;;5031089;28;20706;-89
2022/12/28 13:41:53;;;;;;;15.60;3.35;;;24.60;99.90;;;;;;5037246;28;20202;-91
2022/12/28 13:44:42;;;;;;;13.05;2.42;;;24.50;99.90;;;;;;5026096;28;20307;-91
2022/12/28 13:47:23;;;;;;;14.32;2.63;;;24.50;99.90;;;;;;5036782;28;20224;-90
2022/12/28 13:49:59;;;;;;;14.73;2.60;;;24.50;99.90;;;;;;5029625;28;20562;-89
2022/12/28 13:52:32;;;;;;;9.20;2.70;;;24.50;99.90;;;;;;5016455;28;20236;-89